Scanpipe II — LGWY — position and weather

sailwx.info

Track history (hours):
 
Tides and Currents Weather Stations Pressure Air Temp Water Temp Dewpoint Dewpoint Depression Visibility Wind Speed Wind Dir Waves Ship Positions

Scanpipe II

Last reported at 2017-Nov-16 09:04 UTC. Time now 2017-Nov-18 03:06 UTC.
Position N 68°48' E 016°33'.

Length 26 m.

Type: Dredging. MMSI: 257294700.

Date/timePositionNaut miles runAvg speedWind from/ knotsBaromVisibWave heightAir tempDewpointWater temp
2017-Nov-16 09:04N 68°48' E 016°33'0 0.0
2017-Nov-16 08:58N 68°48' E 016°33'0 0.0
2017-Nov-16 08:28N 68°48' E 016°33'0 0.0
2017-Nov-16 07:58N 68°48' E 016°33'0 0.0
2017-Nov-16 07:28N 68°48' E 016°33'0 0.1
2017-Nov-16 06:58N 68°48' E 016°33'0 0.0
2017-Nov-16 06:29N 68°48' E 016°33'0 0.0
2017-Nov-16 05:59N 68°48' E 016°33'0 0.0
2017-Nov-16 05:29N 68°48' E 016°33'0 0.0
2017-Nov-16 04:56N 68°48' E 016°33'0 0.0
2017-Nov-16 04:29N 68°48' E 016°33'0 0.0
2017-Nov-16 03:59N 68°48' E 016°33'0 0.0
2017-Nov-16 03:29N 68°48' E 016°33'0 0.0
2017-Nov-16 02:59N 68°48' E 016°33'0 0.0
2017-Nov-16 02:29N 68°48' E 016°33'0 0.0
2017-Nov-16 01:59N 68°48' E 016°33'0 0.0
2017-Nov-16 01:29N 68°48' E 016°33'0 0.0
2017-Nov-16 00:59N 68°48' E 016°33'0 0.0
2017-Nov-16 00:29N 68°48' E 016°33'0 0.0
2017-Nov-15 23:59N 68°48' E 016°33'0 0.0
2017-Nov-15 23:29N 68°48' E 016°33'0 0.0
2017-Nov-15 22:59N 68°48' E 016°33'0 0.0
2017-Nov-15 22:29N 68°48' E 016°33'0 0.0
2017-Nov-15 21:59N 68°48' E 016°33'0 0.0
2017-Nov-15 21:29N 68°48' E 016°33'0 0.0
2017-Nov-15 20:59N 68°48' E 016°33'0 0.0
2017-Nov-15 20:29N 68°48' E 016°33'0 0.0
2017-Nov-15 19:59N 68°48' E 016°33'0 0.0
2017-Nov-15 19:29N 68°48' E 016°33'0 0.0
2017-Nov-15 18:59N 68°48' E 016°33'0 0.0
2017-Nov-15 18:29N 68°48' E 016°33'0 0.0
2017-Nov-15 17:59N 68°48' E 016°33'0 0.0
2017-Nov-15 17:29N 68°48' E 016°33'0 0.0
2017-Nov-15 16:59N 68°48' E 016°33'0 0.0
2017-Nov-15 16:29N 68°48' E 016°33'0 0.0
2017-Nov-15 15:59N 68°48' E 016°33'1 1.3
2017-Nov-15 15:29N 68°49' E 016°34'3 5.9
2017-Nov-15 15:00N 68°51' E 016°30'3 6.5
2017-Nov-15 14:29N 68°53' E 016°22'0 0.0
2017-Nov-15 14:00N 68°53' E 016°22'4 7.6
2017-Nov-15 13:30N 68°51' E 016°31'3 5.7
2017-Nov-15 13:00N 68°49' E 016°34'1 1.5
2017-Nov-15 12:31N 68°48' E 016°33'0 0.0
2017-Nov-15 11:58N 68°48' E 016°33'1 1.6
2017-Nov-15 11:30N 68°47' E 016°33'1 2.4
2017-Nov-15 11:00N 68°47' E 016°36'0 0.9
2017-Nov-15 10:28N 68°47' E 016°36'0 0.3
2017-Nov-15 10:00N 68°47' E 016°36'1 2.8
2017-Nov-15 09:30N 68°48' E 016°33'0 0.1
2017-Nov-15 08:58N 68°48' E 016°33'0 0.0
2017-Nov-15 08:28N 68°48' E 016°33'0 0.0
2017-Nov-15 07:58N 68°48' E 016°33'0 0.0
2017-Nov-15 07:28N 68°48' E 016°33'0 0.0
2017-Nov-15 06:55N 68°48' E 016°33'0 0.0
2017-Nov-15 06:28N 68°48' E 016°33'0 0.0
2017-Nov-15 05:58N 68°48' E 016°33'0 0.0
2017-Nov-15 05:28N 68°48' E 016°33'0 0.0
2017-Nov-15 04:58N 68°48' E 016°33'0 0.0
2017-Nov-15 04:28N 68°48' E 016°33'0 0.0
2017-Nov-15 03:58N 68°48' E 016°33'0 0.0
2017-Nov-15 03:28N 68°48' E 016°33'0 0.0
2017-Nov-15 02:58N 68°48' E 016°33'0 0.0
2017-Nov-15 02:28N 68°48' E 016°33'0 0.0
2017-Nov-15 01:58N 68°48' E 016°33'0 0.0
2017-Nov-15 01:28N 68°48' E 016°33'0 0.0
2017-Nov-15 00:58N 68°48' E 016°33'0 0.0
2017-Nov-15 00:28N 68°48' E 016°33'0 0.0
2017-Nov-14 23:58N 68°48' E 016°33'0 0.0
2017-Nov-14 23:28N 68°48' E 016°33'0 0.0
2017-Nov-14 22:58N 68°48' E 016°33'0 0.0
2017-Nov-14 22:25N 68°48' E 016°33'0 0.0
2017-Nov-14 21:58N 68°48' E 016°33'0 0.0
2017-Nov-14 21:28N 68°48' E 016°33'0 0.0
2017-Nov-14 20:58N 68°48' E 016°33'0 0.0
2017-Nov-14 20:25N 68°48' E 016°33'0 0.0
2017-Nov-14 19:58N 68°48' E 016°33'0 0.0
2017-Nov-14 19:25N 68°48' E 016°33'0 0.0
2017-Nov-14 18:58N 68°48' E 016°33'0 0.0
2017-Nov-14 18:28N 68°48' E 016°33'0 0.0
2017-Nov-14 17:58N 68°48' E 016°33'0 0.0
2017-Nov-14 17:28N 68°48' E 016°33'0 0.0
2017-Nov-14 16:58N 68°48' E 016°33'0 0.0
2017-Nov-14 16:28N 68°48' E 016°33'0 0.0
2017-Nov-14 15:58N 68°48' E 016°33'0 0.0
2017-Nov-14 15:28N 68°48' E 016°33'0 0.0
2017-Nov-14 14:58N 68°48' E 016°33'0 0.0
2017-Nov-14 14:28N 68°48' E 016°33'0 0.0
2017-Nov-14 13:58N 68°48' E 016°33'0 0.0
2017-Nov-14 13:28N 68°48' E 016°33'0 0.0
2017-Nov-14 12:58N 68°48' E 016°33'0 0.0
2017-Nov-14 12:28N 68°48' E 016°33'0 0.0
2017-Nov-14 11:58N 68°48' E 016°33'0 0.0
2017-Nov-14 11:28N 68°48' E 016°33'0 0.0
2017-Nov-14 10:58N 68°48' E 016°33'0 0.0
2017-Nov-14 10:28N 68°48' E 016°33'0 0.0
2017-Nov-14 09:58N 68°48' E 016°33'0 0.0
2017-Nov-14 09:29N 68°48' E 016°33'0 0.0
2017-Nov-14 08:59N 68°48' E 016°33'0 0.8
2017-Nov-14 08:28N 68°48' E 016°33'0 0.0
2017-Nov-14 07:58N 68°48' E 016°33'0 0.0
2017-Nov-14 07:28N 68°48' E 016°33'0 0.0
2017-Nov-14 06:58N 68°48' E 016°33'0 0.0
2017-Nov-14 06:28N 68°48' E 016°33'0 0.0
2017-Nov-14 05:58N 68°48' E 016°33'0 0.0
2017-Nov-14 05:28N 68°48' E 016°33'0 0.0
2017-Nov-14 04:58N 68°48' E 016°33'0 0.0
2017-Nov-14 04:28N 68°48' E 016°33'0 0.0
2017-Nov-14 03:58N 68°48' E 016°33'0 0.0
2017-Nov-14 03:28N 68°48' E 016°33'0 0.0
2017-Nov-14 02:58N 68°48' E 016°33'0 0.0
2017-Nov-14 02:28N 68°48' E 016°33'0 0.0
2017-Nov-14 01:58N 68°48' E 016°33'0 0.0
2017-Nov-14 01:28N 68°48' E 016°33'0 0.0
2017-Nov-14 00:58N 68°48' E 016°33'0 0.0
2017-Nov-14 00:28N 68°48' E 016°33'0 0.0
2017-Nov-13 23:58N 68°48' E 016°33'0 0.0
2017-Nov-13 23:28N 68°48' E 016°33'0 0.0
2017-Nov-13 22:58N 68°48' E 016°33'0 0.0
2017-Nov-13 22:28N 68°48' E 016°33'0 0.0
2017-Nov-13 21:58N 68°48' E 016°33'0 0.0
2017-Nov-13 01:59N 68°48' E 016°33'0 0.0
2017-Nov-13 01:29N 68°48' E 016°33'0 0.0
2017-Nov-13 00:59N 68°48' E 016°33'0 0.0
2017-Nov-13 00:29N 68°48' E 016°33'0 0.0
2017-Nov-12 23:59N 68°48' E 016°33'0 0.0
2017-Nov-12 23:29N 68°48' E 016°33'0 0.0
2017-Nov-12 22:59N 68°48' E 016°33'0 0.0
2017-Nov-12 22:29N 68°48' E 016°33'0 0.0
2017-Nov-12 21:59N 68°48' E 016°33'0 0.0
2017-Nov-12 21:29N 68°48' E 016°33'0 0.0
2017-Nov-12 20:59N 68°48' E 016°33'0 0.0
2017-Nov-12 20:29N 68°48' E 016°33'0 0.0
2017-Nov-12 19:59N 68°48' E 016°33'0 0.0
2017-Nov-12 19:29N 68°48' E 016°33'0 0.0
2017-Nov-12 18:59N 68°48' E 016°33'0 0.0
2017-Nov-12 18:29N 68°48' E 016°33'0 0.0
2017-Nov-12 17:59N 68°48' E 016°33'0 0.0
2017-Nov-12 17:29N 68°48' E 016°33'0 0.0
2017-Nov-12 16:59N 68°48' E 016°33'0 0.0
2017-Nov-12 16:29N 68°48' E 016°33'0 0.0
2017-Nov-12 15:59N 68°48' E 016°33'0 0.0
2017-Nov-12 15:26N 68°48' E 016°33'0 0.0
2017-Nov-12 14:59N 68°48' E 016°33'0 0.0
2017-Nov-12 14:29N 68°48' E 016°33'0 0.0
2017-Nov-12 13:59N 68°48' E 016°33'0 0.0
2017-Nov-12 13:26N 68°48' E 016°33'0 0.0
2017-Nov-12 12:59N 68°48' E 016°33'0 0.0
2017-Nov-12 12:26N 68°48' E 016°33'0 0.0
2017-Nov-12 11:59N 68°48' E 016°33'0 0.0
2017-Nov-12 11:29N 68°48' E 016°33'0 0.0
2017-Nov-12 10:59N 68°48' E 016°33'0 0.0
2017-Nov-12 10:29N 68°48' E 016°33'0 0.0
2017-Nov-12 09:59N 68°48' E 016°33'1 2.4
2017-Nov-12 09:30N 68°47' E 016°33'1 1.3
2017-Nov-12 09:00N 68°48' E 016°34'1 2.5
2017-Nov-12 08:30N 68°47' E 016°36'2 3.7
2017-Nov-12 07:58N 68°48' E 016°33'0 0.0
2017-Nov-12 07:28N 68°48' E 016°33'0 0.0
2017-Nov-12 06:58N 68°48' E 016°33'0 0.0
2017-Nov-12 06:28N 68°48' E 016°33'0 0.0
2017-Nov-12 05:58N 68°48' E 016°33'0 0.0
2017-Nov-12 05:28N 68°48' E 016°33'0 0.0
2017-Nov-12 04:58N 68°48' E 016°33'0 0.0
2017-Nov-12 04:28N 68°48' E 016°33'0 0.0
2017-Nov-12 03:58N 68°48' E 016°33'0 0.0
2017-Nov-12 03:28N 68°48' E 016°33'0 0.0
2017-Nov-12 02:58N 68°48' E 016°33'0 0.0
2017-Nov-12 02:28N 68°48' E 016°33'0 0.0
2017-Nov-12 01:58N 68°48' E 016°33'0 0.0
2017-Nov-12 01:28N 68°48' E 016°33'0 0.0
2017-Nov-12 00:58N 68°48' E 016°33'0 0.0
2017-Nov-12 00:28N 68°48' E 016°33'0 0.0
2017-Nov-11 23:58N 68°48' E 016°33'0 0.0
2017-Nov-11 23:28N 68°48' E 016°33'0 0.0
2017-Nov-11 22:58N 68°48' E 016°33'0 0.0
2017-Nov-11 22:28N 68°48' E 016°33'0 0.0
2017-Nov-11 21:58N 68°48' E 016°33'0 0.0
2017-Nov-11 21:28N 68°48' E 016°33'0 0.0
2017-Nov-11 20:58N 68°48' E 016°33'0 0.0
2017-Nov-11 20:28N 68°48' E 016°33'0 0.0
2017-Nov-11 19:58N 68°48' E 016°33'0 0.0
2017-Nov-11 19:28N 68°48' E 016°33'0 0.0
2017-Nov-11 18:58N 68°48' E 016°33'0 0.0
2017-Nov-11 18:28N 68°48' E 016°33'0 0.0
2017-Nov-11 17:58N 68°48' E 016°33'0 0.0
2017-Nov-11 17:28N 68°48' E 016°33'0 0.0
2017-Nov-11 16:58N 68°48' E 016°33'0 0.0
2017-Nov-11 16:28N 68°48' E 016°33'0 0.0
2017-Nov-11 15:58N 68°48' E 016°33'0 0.0
2017-Nov-11 15:28N 68°48' E 016°33'0 0.0
2017-Nov-11 14:58N 68°48' E 016°33'0 0.0
2017-Nov-11 14:28N 68°48' E 016°33'0 0.0
2017-Nov-11 13:58N 68°48' E 016°33'0 0.0
2017-Nov-11 13:28N 68°48' E 016°33'0 0.0
2017-Nov-11 13:00N 68°48' E 016°33'0 0.0
2017-Nov-11 12:30N 68°48' E 016°33'0 0.0
2017-Nov-11 11:57N 68°48' E 016°33'0 0.0
2017-Nov-11 11:30N 68°48' E 016°33'0 0.0
2017-Nov-11 11:01N 68°48' E 016°33'0 0.0
2017-Nov-11 10:30N 68°48' E 016°33'0 0.0
2017-Nov-11 10:00N 68°48' E 016°33'0 0.0
2017-Nov-11 09:30N 68°48' E 016°33'1 1.7
2017-Nov-11 09:00N 68°48' E 016°33'0 0.5
2017-Nov-11 08:31N 68°47' E 016°33'1 2.0
2017-Nov-11 07:58N 68°47' E 016°36'1 2.5
2017-Nov-11 07:30N 68°48' E 016°35'1 1.9
2017-Nov-11 06:59N 68°47' E 016°33'1 2.2
2017-Nov-11 06:28N 68°48' E 016°33'0 0.0
2017-Nov-11 05:58N 68°48' E 016°33'0 0.0
2017-Nov-11 05:28N 68°48' E 016°33'0 0.0
2017-Nov-11 04:58N 68°48' E 016°33'0 0.0
2017-Nov-11 04:28N 68°48' E 016°33'0 0.0
2017-Nov-11 03:58N 68°48' E 016°33'0 0.0
2017-Nov-11 03:28N 68°48' E 016°33'0 0.0
2017-Nov-11 02:58N 68°48' E 016°33'0 0.0
2017-Nov-11 02:28N 68°48' E 016°33'0 0.0
2017-Nov-11 01:58N 68°48' E 016°33'0 0.0
2017-Nov-11 01:28N 68°48' E 016°33'0 0.0
2017-Nov-11 00:58N 68°48' E 016°33'0 0.0
2017-Nov-11 00:25N 68°48' E 016°33'0 0.0
2017-Nov-10 23:55N 68°48' E 016°33'0 0.0
2017-Nov-10 23:28N 68°48' E 016°33'0 0.0
2017-Nov-10 22:58N 68°48' E 016°33'0 0.0
2017-Nov-10 22:28N 68°48' E 016°33'0 0.0
2017-Nov-10 21:55N 68°48' E 016°33'0 0.0
2017-Nov-10 21:28N 68°48' E 016°33'0 0.0
2017-Nov-10 20:58N 68°48' E 016°33'0 0.0
2017-Nov-10 20:28N 68°48' E 016°33'0 0.0
2017-Nov-10 19:58N 68°48' E 016°33'0 0.0
2017-Nov-10 19:28N 68°48' E 016°33'0 0.0
2017-Nov-10 18:58N 68°48' E 016°33'0 0.0
2017-Nov-10 18:28N 68°48' E 016°33'0 0.0
2017-Nov-10 17:58N 68°48' E 016°33'0 0.0
2017-Nov-10 17:28N 68°48' E 016°33'0 0.0
2017-Nov-10 16:58N 68°48' E 016°33'0 0.0
2017-Nov-10 16:28N 68°48' E 016°33'0 0.0
2017-Nov-10 15:58N 68°48' E 016°33'0 0.0
2017-Nov-10 15:28N 68°48' E 016°33'0 0.0
2017-Nov-10 14:58N 68°48' E 016°33'0 0.0
2017-Nov-10 14:28N 68°48' E 016°33'0 0.0
2017-Nov-10 13:58N 68°48' E 016°33'0 0.0
2017-Nov-10 13:28N 68°48' E 016°33'0 0.0
2017-Nov-10 12:58N 68°48' E 016°33'0 0.0
2017-Nov-10 12:29N 68°48' E 016°33'0 0.0
2017-Nov-10 11:59N 68°48' E 016°33'0 0.0
2017-Nov-10 11:29N 68°48' E 016°33'0 0.0
2017-Nov-10 10:59N 68°48' E 016°33'0 0.4
2017-Nov-10 10:30N 68°48' E 016°33'1 1.5
2017-Nov-10 09:58N 68°48' E 016°33'1 1.8
2017-Nov-10 09:29N 68°48' E 016°33'1 1.7
2017-Nov-10 09:00N 68°48' E 016°33'1 1.7
2017-Nov-10 08:30N 68°48' E 016°33'0 0.9
2017-Nov-10 07:59N 68°48' E 016°33'0 0.9
2017-Nov-10 07:30N 68°48' E 016°33'0 0.1
2017-Nov-10 07:00N 68°48' E 016°33'0 1.0
2017-Nov-10 06:30N 68°48' E 016°33'0 0.9
2017-Nov-10 05:58N 68°48' E 016°33'0 0.0
2017-Nov-10 05:28N 68°48' E 016°33'0 0.0
2017-Nov-10 04:58N 68°48' E 016°33'0 0.0
2017-Nov-10 04:28N 68°48' E 016°33'0 0.0
2017-Nov-10 03:58N 68°48' E 016°33'0 0.0
2017-Nov-10 03:28N 68°48' E 016°33'0 0.0
2017-Nov-10 02:58N 68°48' E 016°33'0 0.0
2017-Nov-10 02:28N 68°48' E 016°33'0 0.0
2017-Nov-10 01:58N 68°48' E 016°33'0 0.0
2017-Nov-10 01:28N 68°48' E 016°33'0 0.0
2017-Nov-10 00:58N 68°48' E 016°33'0 0.0
2017-Nov-10 00:28N 68°48' E 016°33'0 0.0
2017-Nov-09 23:58N 68°48' E 016°33'0 0.0
2017-Nov-09 23:29N 68°48' E 016°33'0 0.0
2017-Nov-09 22:58N 68°48' E 016°33'0 0.0
2017-Nov-09 22:28N 68°48' E 016°33'0 0.0
2017-Nov-09 21:59N 68°48' E 016°33'0 0.0
2017-Nov-09 21:28N 68°48' E 016°33'0 0.0
2017-Nov-09 20:58N 68°48' E 016°33'0 0.0
2017-Nov-09 20:28N 68°48' E 016°33'0 0.0
2017-Nov-09 19:58N 68°48' E 016°33'0 0.0
2017-Nov-09 19:28N 68°48' E 016°33'0 0.0
2017-Nov-09 18:59N 68°48' E 016°33'0 0.0
2017-Nov-09 18:29N 68°48' E 016°33'0 0.0
2017-Nov-09 17:59N 68°48' E 016°33'0 0.0
2017-Nov-09 17:29N 68°48' E 016°33'0 0.0
2017-Nov-09 16:59N 68°48' E 016°33'0 0.0
2017-Nov-09 16:29N 68°48' E 016°33'0 0.0
2017-Nov-09 15:59N 68°48' E 016°33'0 0.0
2017-Nov-09 15:29N 68°48' E 016°33'0 0.0
2017-Nov-09 15:00N 68°48' E 016°33'0 0.0
2017-Nov-09 14:30N 68°48' E 016°33'0 0.0
2017-Nov-09 14:00N 68°48' E 016°33'1 1.7
2017-Nov-09 13:28N 68°48' E 016°33'1 1.9
2017-Nov-09 13:00N 68°48' E 016°33'1 1.8
2017-Nov-09 12:30N 68°48' E 016°33'1 1.7
2017-Nov-09 11:58N 68°48' E 016°33'1 1.6
2017-Nov-09 11:30N 68°48' E 016°33'1 1.5
2017-Nov-09 10:59N 68°48' E 016°33'1 2.9
2017-Nov-09 10:29N 68°48' E 016°36'1 1.9
2017-Nov-09 09:59N 68°47' E 016°36'2 3.6
2017-Nov-09 09:29N 68°48' E 016°33'0 0.7
2017-Nov-09 09:00N 68°48' E 016°33'0 0.7
2017-Nov-09 08:29N 68°48' E 016°33'1 1.7
2017-Nov-09 07:59N 68°48' E 016°33'1 1.5
2017-Nov-09 07:25N 68°48' E 016°33'0 0.2
2017-Nov-09 07:00N 68°48' E 016°33'1 1.7
2017-Nov-09 06:30N 68°48' E 016°33'1 1.6
2017-Nov-09 05:58N 68°48' E 016°33'0 0.0
2017-Nov-09 05:28N 68°48' E 016°33'0 0.0
2017-Nov-09 04:58N 68°48' E 016°33'0 0.0
2017-Nov-09 04:28N 68°48' E 016°33'0 0.0
2017-Nov-09 03:58N 68°48' E 016°33'0 0.0
2017-Nov-09 03:28N 68°48' E 016°33'0 0.0
2017-Nov-09 02:58N 68°48' E 016°33'0 0.0
2017-Nov-09 02:28N 68°48' E 016°33'0 0.0
2017-Nov-09 01:58N 68°48' E 016°33'0 0.0
2017-Nov-09 01:28N 68°48' E 016°33'0 0.0
2017-Nov-09 00:58N 68°48' E 016°33'0 0.0
2017-Nov-09 00:28N 68°48' E 016°33'0 0.0
2017-Nov-08 23:58N 68°48' E 016°33'0 0.0
2017-Nov-08 23:28N 68°48' E 016°33'0 0.0
2017-Nov-08 22:58N 68°48' E 016°33'0 0.0
2017-Nov-08 22:28N 68°48' E 016°33'0 0.0
2017-Nov-08 21:58N 68°48' E 016°33'0 0.0
2017-Nov-08 21:28N 68°48' E 016°33'0 0.0
2017-Nov-08 20:58N 68°48' E 016°33'0 0.0
2017-Nov-08 20:28N 68°48' E 016°33'0 0.0
2017-Nov-08 19:58N 68°48' E 016°33'0 0.0
2017-Nov-08 19:28N 68°48' E 016°33'0 0.0
2017-Nov-08 18:58N 68°48' E 016°33'0 0.0
2017-Nov-08 18:28N 68°48' E 016°33'0 0.0
2017-Nov-08 17:55N 68°48' E 016°33'0 0.0
2017-Nov-08 17:28N 68°48' E 016°33'0 0.0
2017-Nov-08 16:58N 68°48' E 016°33'0 0.0
2017-Nov-08 16:28N 68°48' E 016°33'0 0.0
2017-Nov-08 15:58N 68°48' E 016°33'0 0.0
2017-Nov-08 15:28N 68°48' E 016°33'0 0.0
2017-Nov-08 14:58N 68°48' E 016°33'0 0.1
2017-Nov-08 14:28N 68°48' E 016°33'0 0.0
2017-Nov-08 13:48N 68°48' E 016°33'1 2.7
2017-Nov-08 13:29N 68°48' E 016°33'1 1.0
2017-Nov-08 12:36N 68°48' E 016°33'0 0.1
2017-Nov-08 12:30N 68°48' E 016°33'1 0.8
2017-Nov-08 11:48N 68°48' E 016°33'1 0.2
2017-Nov-08 09:05N 68°48' E 016°33'0 0.0
2017-Nov-08 08:59N 68°48' E 016°33'0 0.1
2017-Nov-08 08:29N 68°48' E 016°33'0 0.0
2017-Nov-08 07:59N 68°48' E 016°33'0 0.0
2017-Nov-08 07:17N 68°48' E 016°33'0 0.0
2017-Nov-08 06:59N 68°48' E 016°33'0 0.0
2017-Nov-08 06:29N 68°48' E 016°33'0 0.1
2017-Nov-08 05:59N 68°48' E 016°33'0 0.0
2017-Nov-08 05:29N 68°48' E 016°33'0 0.0
2017-Nov-08 04:59N 68°48' E 016°33'0 0.0
2017-Nov-08 04:29N 68°48' E 016°33'0 0.0
2017-Nov-08 03:59N 68°48' E 016°33'0 0.0
2017-Nov-08 03:29N 68°48' E 016°33'0 0.0
2017-Nov-08 02:59N 68°48' E 016°33'0 0.0
2017-Nov-08 02:29N 68°48' E 016°33'0 0.0
2017-Nov-08 01:59N 68°48' E 016°33'0 0.0
2017-Nov-08 01:29N 68°48' E 016°33'0 0.0
2017-Nov-08 00:59N 68°48' E 016°33'0 0.0
2017-Nov-08 00:26N 68°48' E 016°33'0 0.0
2017-Nov-07 23:59N 68°48' E 016°33'0 0.0
2017-Nov-07 22:38N 68°48' E 016°33'0 0.0
2017-Nov-07 22:29N 68°48' E 016°33'0 0.0
2017-Nov-07 21:59N 68°48' E 016°33'0 0.0
2017-Nov-07 21:29N 68°48' E 016°33'0 0.0
2017-Nov-07 20:59N 68°48' E 016°33'0 0.0
2017-Nov-07 20:29N 68°48' E 016°33'0 0.0
2017-Nov-07 19:59N 68°48' E 016°33'0 0.0
2017-Nov-07 19:29N 68°48' E 016°33'0 0.0
2017-Nov-07 18:59N 68°48' E 016°33'0 0.0
2017-Nov-07 18:29N 68°48' E 016°33'0 0.0
2017-Nov-07 17:59N 68°48' E 016°33'0 0.1
2017-Nov-07 17:29N 68°48' E 016°33'0 0.0
2017-Nov-07 16:59N 68°48' E 016°33'0 0.0
2017-Nov-07 16:29N 68°48' E 016°33'0 0.0
2017-Nov-07 15:59N 68°48' E 016°33'0 0.0
2017-Nov-07 15:29N 68°48' E 016°33'0 0.0
2017-Nov-07 14:59N 68°48' E 016°33'0 0.0
2017-Nov-07 14:29N 68°48' E 016°33'0 0.0
2017-Nov-07 13:59N 68°48' E 016°33'0 0.0
2017-Nov-07 13:29N 68°48' E 016°33'0 0.0
2017-Nov-07 12:59N 68°48' E 016°33'0 0.0
2017-Nov-07 12:30N 68°48' E 016°33'0 0.0
2017-Nov-07 12:00N 68°48' E 016°33'0 0.0
2017-Nov-07 11:30N 68°48' E 016°33'0 0.0
2017-Nov-07 11:00N 68°48' E 016°33'0 0.0
2017-Nov-07 10:30N 68°48' E 016°33'0 0.0
2017-Nov-07 10:00N 68°48' E 016°33'0 0.0
2017-Nov-07 09:30N 68°48' E 016°33'0 0.0
2017-Nov-07 08:57N 68°48' E 016°33'0 0.0
2017-Nov-07 08:30N 68°48' E 016°33'0 0.0
2017-Nov-07 08:00N 68°48' E 016°33'0 0.0
2017-Nov-07 07:30N 68°48' E 016°33'0 0.4
2017-Nov-07 07:00N 68°48' E 016°33'2 3.6
2017-Nov-07 06:30N 68°47' E 016°36'2 3.2
2017-Nov-07 05:59N 68°48' E 016°33'0 0.6
2017-Nov-07 05:29N 68°48' E 016°33'0 0.0
2017-Nov-07 04:59N 68°48' E 016°33'0 0.0
2017-Nov-07 04:29N 68°48' E 016°33'0 0.0
2017-Nov-07 03:59N 68°48' E 016°33'0 0.0
2017-Nov-07 03:29N 68°48' E 016°33'0 0.0
2017-Nov-07 02:59N 68°48' E 016°33'0 0.0
2017-Nov-07 02:29N 68°48' E 016°33'0 0.0
2017-Nov-07 01:59N 68°48' E 016°33'0 0.0
2017-Nov-07 01:29N 68°48' E 016°33'0 0.0
2017-Nov-07 00:59N 68°48' E 016°33'0 0.0
2017-Nov-07 00:29N 68°48' E 016°33'0 0.0
2017-Nov-06 23:59N 68°48' E 016°33'0 0.0
2017-Nov-06 23:29N 68°48' E 016°33'0 0.0
2017-Nov-06 22:59N 68°48' E 016°33'0 0.0
2017-Nov-06 22:29N 68°48' E 016°33'0 0.0
2017-Nov-06 21:59N 68°48' E 016°33'0 0.0
2017-Nov-06 21:29N 68°48' E 016°33'0 0.0
2017-Nov-06 20:59N 68°48' E 016°33'0 0.0
2017-Nov-06 20:29N 68°48' E 016°33'  
Track history (hours):
 
Tides and Currents Weather Stations Pressure Air Temp Water Temp Dewpoint Dewpoint Depression Visibility Wind Speed Wind Dir Waves Ship Positions

Scanpipe II

Last reported at 2017-Nov-16 09:04 UTC. Time now 2017-Nov-18 03:06 UTC.
Position N 68°48' E 016°33'.

Length 26 m.

Type: Dredging. MMSI: 257294700.

Date/timePositionNaut miles runAvg speedWind from/ knotsBaromVisibWave heightAir tempDewpointWater temp
2017-Nov-16 09:04N 68°48' E 016°33'0 0.0
2017-Nov-16 08:58N 68°48' E 016°33'0 0.0
2017-Nov-16 08:28N 68°48' E 016°33'0 0.0
2017-Nov-16 07:58N 68°48' E 016°33'0 0.0
2017-Nov-16 07:28N 68°48' E 016°33'0 0.1
2017-Nov-16 06:58N 68°48' E 016°33'0 0.0
2017-Nov-16 06:29N 68°48' E 016°33'0 0.0
2017-Nov-16 05:59N 68°48' E 016°33'0 0.0
2017-Nov-16 05:29N 68°48' E 016°33'0 0.0
2017-Nov-16 04:56N 68°48' E 016°33'0 0.0
2017-Nov-16 04:29N 68°48' E 016°33'0 0.0
2017-Nov-16 03:59N 68°48' E 016°33'0 0.0
2017-Nov-16 03:29N 68°48' E 016°33'0 0.0
2017-Nov-16 02:59N 68°48' E 016°33'0 0.0
2017-Nov-16 02:29N 68°48' E 016°33'0 0.0
2017-Nov-16 01:59N 68°48' E 016°33'0 0.0
2017-Nov-16 01:29N 68°48' E 016°33'0 0.0
2017-Nov-16 00:59N 68°48' E 016°33'0 0.0
2017-Nov-16 00:29N 68°48' E 016°33'0 0.0
2017-Nov-15 23:59N 68°48' E 016°33'0 0.0
2017-Nov-15 23:29N 68°48' E 016°33'0 0.0
2017-Nov-15 22:59N 68°48' E 016°33'0 0.0
2017-Nov-15 22:29N 68°48' E 016°33'0 0.0
2017-Nov-15 21:59N 68°48' E 016°33'0 0.0
2017-Nov-15 21:29N 68°48' E 016°33'0 0.0
2017-Nov-15 20:59N 68°48' E 016°33'0 0.0
2017-Nov-15 20:29N 68°48' E 016°33'0 0.0
2017-Nov-15 19:59N 68°48' E 016°33'0 0.0
2017-Nov-15 19:29N 68°48' E 016°33'0 0.0
2017-Nov-15 18:59N 68°48' E 016°33'0 0.0
2017-Nov-15 18:29N 68°48' E 016°33'0 0.0
2017-Nov-15 17:59N 68°48' E 016°33'0 0.0
2017-Nov-15 17:29N 68°48' E 016°33'0 0.0
2017-Nov-15 16:59N 68°48' E 016°33'0 0.0
2017-Nov-15 16:29N 68°48' E 016°33'0 0.0
2017-Nov-15 15:59N 68°48' E 016°33'1 1.3
2017-Nov-15 15:29N 68°49' E 016°34'3 5.9
2017-Nov-15 15:00N 68°51' E 016°30'3 6.5
2017-Nov-15 14:29N 68°53' E 016°22'0 0.0
2017-Nov-15 14:00N 68°53' E 016°22'4 7.6
2017-Nov-15 13:30N 68°51' E 016°31'3 5.7
2017-Nov-15 13:00N 68°49' E 016°34'1 1.5
2017-Nov-15 12:31N 68°48' E 016°33'0 0.0
2017-Nov-15 11:58N 68°48' E 016°33'1 1.6
2017-Nov-15 11:30N 68°47' E 016°33'1 2.4
2017-Nov-15 11:00N 68°47' E 016°36'0 0.9
2017-Nov-15 10:28N 68°47' E 016°36'0 0.3
2017-Nov-15 10:00N 68°47' E 016°36'1 2.8
2017-Nov-15 09:30N 68°48' E 016°33'0 0.1
2017-Nov-15 08:58N 68°48' E 016°33'0 0.0
2017-Nov-15 08:28N 68°48' E 016°33'0 0.0
2017-Nov-15 07:58N 68°48' E 016°33'0 0.0
2017-Nov-15 07:28N 68°48' E 016°33'0 0.0
2017-Nov-15 06:55N 68°48' E 016°33'0 0.0
2017-Nov-15 06:28N 68°48' E 016°33'0 0.0
2017-Nov-15 05:58N 68°48' E 016°33'0 0.0
2017-Nov-15 05:28N 68°48' E 016°33'0 0.0
2017-Nov-15 04:58N 68°48' E 016°33'0 0.0
2017-Nov-15 04:28N 68°48' E 016°33'0 0.0
2017-Nov-15 03:58N 68°48' E 016°33'0 0.0
2017-Nov-15 03:28N 68°48' E 016°33'0 0.0
2017-Nov-15 02:58N 68°48' E 016°33'0 0.0
2017-Nov-15 02:28N 68°48' E 016°33'0 0.0
2017-Nov-15 01:58N 68°48' E 016°33'0 0.0
2017-Nov-15 01:28N 68°48' E 016°33'0 0.0
2017-Nov-15 00:58N 68°48' E 016°33'0 0.0
2017-Nov-15 00:28N 68°48' E 016°33'0 0.0
2017-Nov-14 23:58N 68°48' E 016°33'0 0.0
2017-Nov-14 23:28N 68°48' E 016°33'0 0.0
2017-Nov-14 22:58N 68°48' E 016°33'0 0.0
2017-Nov-14 22:25N 68°48' E 016°33'0 0.0
2017-Nov-14 21:58N 68°48' E 016°33'0 0.0
2017-Nov-14 21:28N 68°48' E 016°33'0 0.0
2017-Nov-14 20:58N 68°48' E 016°33'0 0.0
2017-Nov-14 20:25N 68°48' E 016°33'0 0.0
2017-Nov-14 19:58N 68°48' E 016°33'0 0.0
2017-Nov-14 19:25N 68°48' E 016°33'0 0.0
2017-Nov-14 18:58N 68°48' E 016°33'0 0.0
2017-Nov-14 18:28N 68°48' E 016°33'0 0.0
2017-Nov-14 17:58N 68°48' E 016°33'0 0.0
2017-Nov-14 17:28N 68°48' E 016°33'0 0.0
2017-Nov-14 16:58N 68°48' E 016°33'0 0.0
2017-Nov-14 16:28N 68°48' E 016°33'0 0.0
2017-Nov-14 15:58N 68°48' E 016°33'0 0.0
2017-Nov-14 15:28N 68°48' E 016°33'0 0.0
2017-Nov-14 14:58N 68°48' E 016°33'0 0.0
2017-Nov-14 14:28N 68°48' E 016°33'0 0.0
2017-Nov-14 13:58N 68°48' E 016°33'0 0.0
2017-Nov-14 13:28N 68°48' E 016°33'0 0.0
2017-Nov-14 12:58N 68°48' E 016°33'0 0.0
2017-Nov-14 12:28N 68°48' E 016°33'0 0.0
2017-Nov-14 11:58N 68°48' E 016°33'0 0.0
2017-Nov-14 11:28N 68°48' E 016°33'0 0.0
2017-Nov-14 10:58N 68°48' E 016°33'0 0.0
2017-Nov-14 10:28N 68°48' E 016°33'0 0.0
2017-Nov-14 09:58N 68°48' E 016°33'0 0.0
2017-Nov-14 09:29N 68°48' E 016°33'0 0.0
2017-Nov-14 08:59N 68°48' E 016°33'0 0.8
2017-Nov-14 08:28N 68°48' E 016°33'0 0.0
2017-Nov-14 07:58N 68°48' E 016°33'0 0.0
2017-Nov-14 07:28N 68°48' E 016°33'0 0.0
2017-Nov-14 06:58N 68°48' E 016°33'0 0.0
2017-Nov-14 06:28N 68°48' E 016°33'0 0.0
2017-Nov-14 05:58N 68°48' E 016°33'0 0.0
2017-Nov-14 05:28N 68°48' E 016°33'0 0.0
2017-Nov-14 04:58N 68°48' E 016°33'0 0.0
2017-Nov-14 04:28N 68°48' E 016°33'0 0.0
2017-Nov-14 03:58N 68°48' E 016°33'0 0.0
2017-Nov-14 03:28N 68°48' E 016°33'0 0.0
2017-Nov-14 02:58N 68°48' E 016°33'0 0.0
2017-Nov-14 02:28N 68°48' E 016°33'0 0.0
2017-Nov-14 01:58N 68°48' E 016°33'0 0.0
2017-Nov-14 01:28N 68°48' E 016°33'0 0.0
2017-Nov-14 00:58N 68°48' E 016°33'0 0.0
2017-Nov-14 00:28N 68°48' E 016°33'0 0.0
2017-Nov-13 23:58N 68°48' E 016°33'0 0.0
2017-Nov-13 23:28N 68°48' E 016°33'0 0.0
2017-Nov-13 22:58N 68°48' E 016°33'0 0.0
2017-Nov-13 22:28N 68°48' E 016°33'0 0.0
2017-Nov-13 21:58N 68°48' E 016°33'0 0.0
2017-Nov-13 01:59N 68°48' E 016°33'0 0.0
2017-Nov-13 01:29N 68°48' E 016°33'0 0.0
2017-Nov-13 00:59N 68°48' E 016°33'0 0.0
2017-Nov-13 00:29N 68°48' E 016°33'0 0.0
2017-Nov-12 23:59N 68°48' E 016°33'0 0.0
2017-Nov-12 23:29N 68°48' E 016°33'0 0.0
2017-Nov-12 22:59N 68°48' E 016°33'0 0.0
2017-Nov-12 22:29N 68°48' E 016°33'0 0.0
2017-Nov-12 21:59N 68°48' E 016°33'0 0.0
2017-Nov-12 21:29N 68°48' E 016°33'0 0.0
2017-Nov-12 20:59N 68°48' E 016°33'0 0.0
2017-Nov-12 20:29N 68°48' E 016°33'0 0.0
2017-Nov-12 19:59N 68°48' E 016°33'0 0.0
2017-Nov-12 19:29N 68°48' E 016°33'0 0.0
2017-Nov-12 18:59N 68°48' E 016°33'0 0.0
2017-Nov-12 18:29N 68°48' E 016°33'0 0.0
2017-Nov-12 17:59N 68°48' E 016°33'0 0.0
2017-Nov-12 17:29N 68°48' E 016°33'0 0.0
2017-Nov-12 16:59N 68°48' E 016°33'0 0.0
2017-Nov-12 16:29N 68°48' E 016°33'0 0.0
2017-Nov-12 15:59N 68°48' E 016°33'0 0.0
2017-Nov-12 15:26N 68°48' E 016°33'0 0.0
2017-Nov-12 14:59N 68°48' E 016°33'0 0.0
2017-Nov-12 14:29N 68°48' E 016°33'0 0.0
2017-Nov-12 13:59N 68°48' E 016°33'0 0.0
2017-Nov-12 13:26N 68°48' E 016°33'0 0.0
2017-Nov-12 12:59N 68°48' E 016°33'0 0.0
2017-Nov-12 12:26N 68°48' E 016°33'0 0.0
2017-Nov-12 11:59N 68°48' E 016°33'0 0.0
2017-Nov-12 11:29N 68°48' E 016°33'0 0.0
2017-Nov-12 10:59N 68°48' E 016°33'0 0.0
2017-Nov-12 10:29N 68°48' E 016°33'0 0.0
2017-Nov-12 09:59N 68°48' E 016°33'1 2.4
2017-Nov-12 09:30N 68°47' E 016°33'1 1.3
2017-Nov-12 09:00N 68°48' E 016°34'1 2.5
2017-Nov-12 08:30N 68°47' E 016°36'2 3.7
2017-Nov-12 07:58N 68°48' E 016°33'0 0.0
2017-Nov-12 07:28N 68°48' E 016°33'0 0.0
2017-Nov-12 06:58N 68°48' E 016°33'0 0.0
2017-Nov-12 06:28N 68°48' E 016°33'0 0.0
2017-Nov-12 05:58N 68°48' E 016°33'0 0.0
2017-Nov-12 05:28N 68°48' E 016°33'0 0.0
2017-Nov-12 04:58N 68°48' E 016°33'0 0.0
2017-Nov-12 04:28N 68°48' E 016°33'0 0.0
2017-Nov-12 03:58N 68°48' E 016°33'0 0.0
2017-Nov-12 03:28N 68°48' E 016°33'0 0.0
2017-Nov-12 02:58N 68°48' E 016°33'0 0.0
2017-Nov-12 02:28N 68°48' E 016°33'0 0.0
2017-Nov-12 01:58N 68°48' E 016°33'0 0.0
2017-Nov-12 01:28N 68°48' E 016°33'0 0.0
2017-Nov-12 00:58N 68°48' E 016°33'0 0.0
2017-Nov-12 00:28N 68°48' E 016°33'0 0.0
2017-Nov-11 23:58N 68°48' E 016°33'0 0.0
2017-Nov-11 23:28N 68°48' E 016°33'0 0.0
2017-Nov-11 22:58N 68°48' E 016°33'0 0.0
2017-Nov-11 22:28N 68°48' E 016°33'0 0.0
2017-Nov-11 21:58N 68°48' E 016°33'0 0.0
2017-Nov-11 21:28N 68°48' E 016°33'0 0.0
2017-Nov-11 20:58N 68°48' E 016°33'0 0.0
2017-Nov-11 20:28N 68°48' E 016°33'0 0.0
2017-Nov-11 19:58N 68°48' E 016°33'0 0.0
2017-Nov-11 19:28N 68°48' E 016°33'0 0.0
2017-Nov-11 18:58N 68°48' E 016°33'0 0.0
2017-Nov-11 18:28N 68°48' E 016°33'0 0.0
2017-Nov-11 17:58N 68°48' E 016°33'0 0.0
2017-Nov-11 17:28N 68°48' E 016°33'0 0.0
2017-Nov-11 16:58N 68°48' E 016°33'0 0.0
2017-Nov-11 16:28N 68°48' E 016°33'0 0.0
2017-Nov-11 15:58N 68°48' E 016°33'0 0.0
2017-Nov-11 15:28N 68°48' E 016°33'0 0.0
2017-Nov-11 14:58N 68°48' E 016°33'0 0.0
2017-Nov-11 14:28N 68°48' E 016°33'0 0.0
2017-Nov-11 13:58N 68°48' E 016°33'0 0.0
2017-Nov-11 13:28N 68°48' E 016°33'0 0.0
2017-Nov-11 13:00N 68°48' E 016°33'0 0.0
2017-Nov-11 12:30N 68°48' E 016°33'0 0.0
2017-Nov-11 11:57N 68°48' E 016°33'0 0.0
2017-Nov-11 11:30N 68°48' E 016°33'0 0.0
2017-Nov-11 11:01N 68°48' E 016°33'0 0.0
2017-Nov-11 10:30N 68°48' E 016°33'0 0.0
2017-Nov-11 10:00N 68°48' E 016°33'0 0.0
2017-Nov-11 09:30N 68°48' E 016°33'1 1.7
2017-Nov-11 09:00N 68°48' E 016°33'0 0.5
2017-Nov-11 08:31N 68°47' E 016°33'1 2.0
2017-Nov-11 07:58N 68°47' E 016°36'1 2.5
2017-Nov-11 07:30N 68°48' E 016°35'1 1.9
2017-Nov-11 06:59N 68°47' E 016°33'1 2.2
2017-Nov-11 06:28N 68°48' E 016°33'0 0.0
2017-Nov-11 05:58N 68°48' E 016°33'0 0.0
2017-Nov-11 05:28N 68°48' E 016°33'0 0.0
2017-Nov-11 04:58N 68°48' E 016°33'0 0.0
2017-Nov-11 04:28N 68°48' E 016°33'0 0.0
2017-Nov-11 03:58N 68°48' E 016°33'0 0.0
2017-Nov-11 03:28N 68°48' E 016°33'0 0.0
2017-Nov-11 02:58N 68°48' E 016°33'0 0.0
2017-Nov-11 02:28N 68°48' E 016°33'0 0.0
2017-Nov-11 01:58N 68°48' E 016°33'0 0.0
2017-Nov-11 01:28N 68°48' E 016°33'0 0.0
2017-Nov-11 00:58N 68°48' E 016°33'0 0.0
2017-Nov-11 00:25N 68°48' E 016°33'0 0.0
2017-Nov-10 23:55N 68°48' E 016°33'0 0.0
2017-Nov-10 23:28N 68°48' E 016°33'0 0.0
2017-Nov-10 22:58N 68°48' E 016°33'0 0.0
2017-Nov-10 22:28N 68°48' E 016°33'0 0.0
2017-Nov-10 21:55N 68°48' E 016°33'0 0.0
2017-Nov-10 21:28N 68°48' E 016°33'0 0.0
2017-Nov-10 20:58N 68°48' E 016°33'0 0.0
2017-Nov-10 20:28N 68°48' E 016°33'0 0.0
2017-Nov-10 19:58N 68°48' E 016°33'0 0.0
2017-Nov-10 19:28N 68°48' E 016°33'0 0.0
2017-Nov-10 18:58N 68°48' E 016°33'0 0.0
2017-Nov-10 18:28N 68°48' E 016°33'0 0.0
2017-Nov-10 17:58N 68°48' E 016°33'0 0.0
2017-Nov-10 17:28N 68°48' E 016°33'0 0.0
2017-Nov-10 16:58N 68°48' E 016°33'0 0.0
2017-Nov-10 16:28N 68°48' E 016°33'0 0.0
2017-Nov-10 15:58N 68°48' E 016°33'0 0.0
2017-Nov-10 15:28N 68°48' E 016°33'0 0.0
2017-Nov-10 14:58N 68°48' E 016°33'0 0.0
2017-Nov-10 14:28N 68°48' E 016°33'0 0.0
2017-Nov-10 13:58N 68°48' E 016°33'0 0.0
2017-Nov-10 13:28N 68°48' E 016°33'0 0.0
2017-Nov-10 12:58N 68°48' E 016°33'0 0.0
2017-Nov-10 12:29N 68°48' E 016°33'0 0.0
2017-Nov-10 11:59N 68°48' E 016°33'0 0.0
2017-Nov-10 11:29N 68°48' E 016°33'0 0.0
2017-Nov-10 10:59N 68°48' E 016°33'0 0.4
2017-Nov-10 10:30N 68°48' E 016°33'1 1.5
2017-Nov-10 09:58N 68°48' E 016°33'1 1.8
2017-Nov-10 09:29N 68°48' E 016°33'1 1.7
2017-Nov-10 09:00N 68°48' E 016°33'1 1.7
2017-Nov-10 08:30N 68°48' E 016°33'0 0.9
2017-Nov-10 07:59N 68°48' E 016°33'0 0.9
2017-Nov-10 07:30N 68°48' E 016°33'0 0.1
2017-Nov-10 07:00N 68°48' E 016°33'0 1.0
2017-Nov-10 06:30N 68°48' E 016°33'0 0.9
2017-Nov-10 05:58N 68°48' E 016°33'0 0.0
2017-Nov-10 05:28N 68°48' E 016°33'0 0.0
2017-Nov-10 04:58N 68°48' E 016°33'0 0.0
2017-Nov-10 04:28N 68°48' E 016°33'0 0.0
2017-Nov-10 03:58N 68°48' E 016°33'0 0.0
2017-Nov-10 03:28N 68°48' E 016°33'0 0.0
2017-Nov-10 02:58N 68°48' E 016°33'0 0.0
2017-Nov-10 02:28N 68°48' E 016°33'0 0.0
2017-Nov-10 01:58N 68°48' E 016°33'0 0.0
2017-Nov-10 01:28N 68°48' E 016°33'0 0.0
2017-Nov-10 00:58N 68°48' E 016°33'0 0.0
2017-Nov-10 00:28N 68°48' E 016°33'0 0.0
2017-Nov-09 23:58N 68°48' E 016°33'0 0.0
2017-Nov-09 23:29N 68°48' E 016°33'0 0.0
2017-Nov-09 22:58N 68°48' E 016°33'0 0.0
2017-Nov-09 22:28N 68°48' E 016°33'0 0.0
2017-Nov-09 21:59N 68°48' E 016°33'0 0.0
2017-Nov-09 21:28N 68°48' E 016°33'0 0.0
2017-Nov-09 20:58N 68°48' E 016°33'0 0.0
2017-Nov-09 20:28N 68°48' E 016°33'0 0.0
2017-Nov-09 19:58N 68°48' E 016°33'0 0.0
2017-Nov-09 19:28N 68°48' E 016°33'0 0.0
2017-Nov-09 18:59N 68°48' E 016°33'0 0.0
2017-Nov-09 18:29N 68°48' E 016°33'0 0.0
2017-Nov-09 17:59N 68°48' E 016°33'0 0.0
2017-Nov-09 17:29N 68°48' E 016°33'0 0.0
2017-Nov-09 16:59N 68°48' E 016°33'0 0.0
2017-Nov-09 16:29N 68°48' E 016°33'0 0.0
2017-Nov-09 15:59N 68°48' E 016°33'0 0.0
2017-Nov-09 15:29N 68°48' E 016°33'0 0.0
2017-Nov-09 15:00N 68°48' E 016°33'0 0.0
2017-Nov-09 14:30N 68°48' E 016°33'0 0.0
2017-Nov-09 14:00N 68°48' E 016°33'1 1.7
2017-Nov-09 13:28N 68°48' E 016°33'1 1.9
2017-Nov-09 13:00N 68°48' E 016°33'1 1.8
2017-Nov-09 12:30N 68°48' E 016°33'1 1.7
2017-Nov-09 11:58N 68°48' E 016°33'1 1.6
2017-Nov-09 11:30N 68°48' E 016°33'1 1.5
2017-Nov-09 10:59N 68°48' E 016°33'1 2.9
2017-Nov-09 10:29N 68°48' E 016°36'1 1.9
2017-Nov-09 09:59N 68°47' E 016°36'2 3.6
2017-Nov-09 09:29N 68°48' E 016°33'0 0.7
2017-Nov-09 09:00N 68°48' E 016°33'0 0.7
2017-Nov-09 08:29N 68°48' E 016°33'1 1.7
2017-Nov-09 07:59N 68°48' E 016°33'1 1.5
2017-Nov-09 07:25N 68°48' E 016°33'0 0.2
2017-Nov-09 07:00N 68°48' E 016°33'1 1.7
2017-Nov-09 06:30N 68°48' E 016°33'1 1.6
2017-Nov-09 05:58N 68°48' E 016°33'0 0.0
2017-Nov-09 05:28N 68°48' E 016°33'0 0.0
2017-Nov-09 04:58N 68°48' E 016°33'0 0.0
2017-Nov-09 04:28N 68°48' E 016°33'0 0.0
2017-Nov-09 03:58N 68°48' E 016°33'0 0.0
2017-Nov-09 03:28N 68°48' E 016°33'0 0.0
2017-Nov-09 02:58N 68°48' E 016°33'0 0.0
2017-Nov-09 02:28N 68°48' E 016°33'0 0.0
2017-Nov-09 01:58N 68°48' E 016°33'0 0.0
2017-Nov-09 01:28N 68°48' E 016°33'0 0.0
2017-Nov-09 00:58N 68°48' E 016°33'0 0.0
2017-Nov-09 00:28N 68°48' E 016°33'0 0.0
2017-Nov-08 23:58N 68°48' E 016°33'0 0.0
2017-Nov-08 23:28N 68°48' E 016°33'0 0.0
2017-Nov-08 22:58N 68°48' E 016°33'0 0.0
2017-Nov-08 22:28N 68°48' E 016°33'0 0.0
2017-Nov-08 21:58N 68°48' E 016°33'0 0.0
2017-Nov-08 21:28N 68°48' E 016°33'0 0.0
2017-Nov-08 20:58N 68°48' E 016°33'0 0.0
2017-Nov-08 20:28N 68°48' E 016°33'0 0.0
2017-Nov-08 19:58N 68°48' E 016°33'0 0.0
2017-Nov-08 19:28N 68°48' E 016°33'0 0.0
2017-Nov-08 18:58N 68°48' E 016°33'0 0.0
2017-Nov-08 18:28N 68°48' E 016°33'0 0.0
2017-Nov-08 17:55N 68°48' E 016°33'0 0.0
2017-Nov-08 17:28N 68°48' E 016°33'0 0.0
2017-Nov-08 16:58N 68°48' E 016°33'0 0.0
2017-Nov-08 16:28N 68°48' E 016°33'0 0.0
2017-Nov-08 15:58N 68°48' E 016°33'0 0.0
2017-Nov-08 15:28N 68°48' E 016°33'0 0.0
2017-Nov-08 14:58N 68°48' E 016°33'0 0.1
2017-Nov-08 14:28N 68°48' E 016°33'0 0.0
2017-Nov-08 13:48N 68°48' E 016°33'1 2.7
2017-Nov-08 13:29N 68°48' E 016°33'1 1.0
2017-Nov-08 12:36N 68°48' E 016°33'0 0.1
2017-Nov-08 12:30N 68°48' E 016°33'1 0.8
2017-Nov-08 11:48N 68°48' E 016°33'1 0.2
2017-Nov-08 09:05N 68°48' E 016°33'0 0.0
2017-Nov-08 08:59N 68°48' E 016°33'0 0.1
2017-Nov-08 08:29N 68°48' E 016°33'0 0.0
2017-Nov-08 07:59N 68°48' E 016°33'0 0.0
2017-Nov-08 07:17N 68°48' E 016°33'0 0.0
2017-Nov-08 06:59N 68°48' E 016°33'0 0.0
2017-Nov-08 06:29N 68°48' E 016°33'0 0.1
2017-Nov-08 05:59N 68°48' E 016°33'0 0.0
2017-Nov-08 05:29N 68°48' E 016°33'0 0.0
2017-Nov-08 04:59N 68°48' E 016°33'0 0.0
2017-Nov-08 04:29N 68°48' E 016°33'0 0.0
2017-Nov-08 03:59N 68°48' E 016°33'0 0.0
2017-Nov-08 03:29N 68°48' E 016°33'0 0.0
2017-Nov-08 02:59N 68°48' E 016°33'0 0.0
2017-Nov-08 02:29N 68°48' E 016°33'0 0.0
2017-Nov-08 01:59N 68°48' E 016°33'0 0.0
2017-Nov-08 01:29N 68°48' E 016°33'0 0.0
2017-Nov-08 00:59N 68°48' E 016°33'0 0.0
2017-Nov-08 00:26N 68°48' E 016°33'0 0.0
2017-Nov-07 23:59N 68°48' E 016°33'0 0.0
2017-Nov-07 22:38N 68°48' E 016°33'0 0.0
2017-Nov-07 22:29N 68°48' E 016°33'0 0.0
2017-Nov-07 21:59N 68°48' E 016°33'0 0.0
2017-Nov-07 21:29N 68°48' E 016°33'0 0.0
2017-Nov-07 20:59N 68°48' E 016°33'0 0.0
2017-Nov-07 20:29N 68°48' E 016°33'0 0.0
2017-Nov-07 19:59N 68°48' E 016°33'0 0.0
2017-Nov-07 19:29N 68°48' E 016°33'0 0.0
2017-Nov-07 18:59N 68°48' E 016°33'0 0.0
2017-Nov-07 18:29N 68°48' E 016°33'0 0.0
2017-Nov-07 17:59N 68°48' E 016°33'0 0.1
2017-Nov-07 17:29N 68°48' E 016°33'0 0.0
2017-Nov-07 16:59N 68°48' E 016°33'0 0.0
2017-Nov-07 16:29N 68°48' E 016°33'0 0.0
2017-Nov-07 15:59N 68°48' E 016°33'0 0.0
2017-Nov-07 15:29N 68°48' E 016°33'0 0.0
2017-Nov-07 14:59N 68°48' E 016°33'0 0.0
2017-Nov-07 14:29N 68°48' E 016°33'0 0.0
2017-Nov-07 13:59N 68°48' E 016°33'0 0.0
2017-Nov-07 13:29N 68°48' E 016°33'0 0.0
2017-Nov-07 12:59N 68°48' E 016°33'0 0.0
2017-Nov-07 12:30N 68°48' E 016°33'0 0.0
2017-Nov-07 12:00N 68°48' E 016°33'0 0.0
2017-Nov-07 11:30N 68°48' E 016°33'0 0.0
2017-Nov-07 11:00N 68°48' E 016°33'0 0.0
2017-Nov-07 10:30N 68°48' E 016°33'0 0.0
2017-Nov-07 10:00N 68°48' E 016°33'0 0.0
2017-Nov-07 09:30N 68°48' E 016°33'0 0.0
2017-Nov-07 08:57N 68°48' E 016°33'0 0.0
2017-Nov-07 08:30N 68°48' E 016°33'0 0.0
2017-Nov-07 08:00N 68°48' E 016°33'0 0.0
2017-Nov-07 07:30N 68°48' E 016°33'0 0.4
2017-Nov-07 07:00N 68°48' E 016°33'2 3.6
2017-Nov-07 06:30N 68°47' E 016°36'2 3.2
2017-Nov-07 05:59N 68°48' E 016°33'0 0.6
2017-Nov-07 05:29N 68°48' E 016°33'0 0.0
2017-Nov-07 04:59N 68°48' E 016°33'0 0.0
2017-Nov-07 04:29N 68°48' E 016°33'0 0.0
2017-Nov-07 03:59N 68°48' E 016°33'0 0.0
2017-Nov-07 03:29N 68°48' E 016°33'0 0.0
2017-Nov-07 02:59N 68°48' E 016°33'0 0.0
2017-Nov-07 02:29N 68°48' E 016°33'0 0.0
2017-Nov-07 01:59N 68°48' E 016°33'0 0.0
2017-Nov-07 01:29N 68°48' E 016°33'0 0.0
2017-Nov-07 00:59N 68°48' E 016°33'0 0.0
2017-Nov-07 00:29N 68°48' E 016°33'0 0.0
2017-Nov-06 23:59N 68°48' E 016°33'0 0.0
2017-Nov-06 23:29N 68°48' E 016°33'0 0.0
2017-Nov-06 22:59N 68°48' E 016°33'0 0.0
2017-Nov-06 22:29N 68°48' E 016°33'0 0.0
2017-Nov-06 21:59N 68°48' E 016°33'0 0.0
2017-Nov-06 21:29N 68°48' E 016°33'0 0.0
2017-Nov-06 20:59N 68°48' E 016°33'0 0.0
2017-Nov-06 20:29N 68°48' E 016°33'  

Dump ship's entire track history